Catawba Heights, North Carolina
Current Conditions -  °F | °C
As of 8:52 PM on Friday 21 Nov 2014 (Local Time) from KCLT Reporting Station
Clear Clear  
Wind Chill:   Ceiling: Unl
Heat Index:   Visibility: 10mi
Dew Point: -13°   Wind: 7mph
Humidity: 22%   Direction: 90°E
Pressure: 30.48"   Gusts: NA
Location:  35.2342°N, 81.041°W
Report Text: KCLT 220152Z 09006KT 10SM CLR 07/M13 A3048 RMK AO2 SLP323 T00721133
Loading
Personal Weather Stations






























Interactive Weather Map New forecast layout! Learn more

10-Day Weather Forecast

Advertisements
Track Severe Weather on mobile